Findhorn, United Kingdom
Current Conditions -  °F | °C
As of 3:50 PM on Thursday 30 Oct 2014 (Local Time) from EGQK Reporting Station
Haze Haze  
Wind Chill: 50°   Ceiling: 8000
Heat Index: 50°   Visibility: 6mi
Dew Point: 48°   Wind: 2mph
Humidity: 94%   Direction: 360°N
Pressure: 29.83"   Gusts: NA
Location:  57.66°N, 3.61°W
Report Text: EGQK 301550Z 36002KT 9999 7000W HZ SCT030 BKN080 10/09 Q1010 WHT
Loading
Personal Weather Stations






























Interactive Weather Map
Tropical Storm Tracking
New forecast layout! Learn more

10-Day Weather Forecast

Advertisements
Track Severe Weather on mobile